createdAt,value
2018-04-10T00:00:00.554Z,0
2018-04-10T00:01:01.447Z,0
2018-04-10T00:02:00.834Z,0
2018-04-10T00:03:01.595Z,0
2018-04-10T00:04:01.340Z,0
2018-04-10T00:05:00.697Z,0
2018-04-10T00:06:01.413Z,0
2018-04-10T00:07:01.293Z,0
2018-04-10T00:08:00.621Z,0
2018-04-10T00:09:01.239Z,0
2018-04-10T00:10:01.238Z,0
2018-04-10T00:11:01.137Z,0
2018-04-10T00:12:21.570Z,0
2018-04-10T00:13:42.980Z,0
2018-04-10T00:14:43.933Z,0
2018-04-10T00:15:43.312Z,0
2018-04-10T00:16:43.194Z,0
2018-04-10T00:17:42.736Z,0
2018-04-10T00:18:43.427Z,0
2018-04-10T00:19:43.050Z,0
2018-04-10T00:20:43.596Z,0
2018-04-10T00:21:44.438Z,0
2018-04-10T00:23:03.213Z,0
2018-04-10T00:24:03.686Z,0
2018-04-10T00:25:24.628Z,0
2018-04-10T00:26:25.539Z,0
2018-04-10T00:27:25.048Z,0
2018-04-10T00:28:25.466Z,0
2018-04-10T00:29:25.176Z,0
2018-04-10T00:30:25.831Z,0
2018-04-10T00:31:25.703Z,0
2018-04-10T00:32:25.981Z,0
2018-04-10T00:33:25.740Z,0
2018-04-10T00:34:47.149Z,0
2018-04-10T00:35:47.809Z,0
2018-04-10T00:36:47.160Z,0
2018-04-10T00:37:48.029Z,0
2018-04-10T00:38:47.478Z,0
2018-04-10T00:39:48.017Z,0
2018-04-10T00:40:47.552Z,0
2018-04-10T00:41:47.642Z,0
2018-04-10T00:42:48.154Z,0
2018-04-10T00:44:29.400Z,0
2018-04-10T00:45:29.767Z,0
2018-04-10T00:46:29.368Z,0
2018-04-10T00:47:51.259Z,0
2018-04-10T00:48:50.700Z,0
2018-04-10T00:49:51.186Z,0
2018-04-10T00:50:51.536Z,0
2018-04-10T00:51:51.254Z,0
2018-04-10T00:52:50.771Z,0
2018-04-10T00:53:51.225Z,0
2018-04-10T00:54:50.561Z,0
2018-04-10T00:55:51.103Z,0
2018-04-10T00:56:51.456Z,0
2018-04-10T00:57:51.127Z,0
2018-04-10T00:58:50.910Z,0
2018-04-10T00:59:51.365Z,0
2018-04-10T01:00:51.009Z,0
2018-04-10T01:01:51.345Z,0
2018-04-10T01:02:50.860Z,0
2018-04-10T01:03:51.446Z,0
2018-04-10T01:04:50.907Z,0
2018-04-10T01:05:51.630Z,0
2018-04-10T01:06:51.175Z,0
2018-04-10T01:07:50.885Z,0
2018-04-10T01:08:51.684Z,0
2018-04-10T01:09:51.012Z,0
2018-04-10T01:10:51.251Z,0
2018-04-10T01:11:50.982Z,0
2018-04-10T01:12:51.556Z,0
2018-04-10T01:13:51.055Z,0
2018-04-10T01:14:51.728Z,0
2018-04-10T01:15:51.604Z,0
2018-04-10T01:16:50.947Z,0
2018-04-10T01:18:33.241Z,0
2018-04-10T01:19:34.032Z,0
2018-04-10T01:20:33.591Z,0
2018-04-10T01:21:55.366Z,0
2018-04-10T01:22:56.194Z,0
2018-04-10T01:23:55.982Z,0
2018-04-10T01:24:56.404Z,0
2018-04-10T01:26:16.504Z,0
2018-04-10T01:27:17.084Z,0
2018-04-10T01:28:16.894Z,0
2018-04-10T01:29:59.148Z,0
2018-04-10T01:30:59.886Z,0
2018-04-10T01:31:59.482Z,0
2018-04-10T01:32:59.054Z,0
2018-04-10T01:33:59.353Z,0
2018-04-10T01:34:59.106Z,0
2018-04-10T01:35:59.580Z,0
2018-04-10T01:36:59.141Z,0
2018-04-10T01:37:59.669Z,0
2018-04-10T01:38:59.186Z,0
2018-04-10T01:40:21.141Z,0
2018-04-10T01:41:42.497Z,0
2018-04-10T01:42:42.861Z,0
2018-04-10T01:43:42.262Z,0
2018-04-10T01:44:43.011Z,0
2018-04-10T01:45:42.781Z,0
2018-04-10T01:47:06.559Z,0
2018-04-10T01:48:07.322Z,0
2018-04-10T01:49:06.705Z,0
2018-04-10T01:50:07.417Z,0
2018-04-10T01:51:06.838Z,0
2018-04-10T01:52:28.950Z,0
2018-04-10T01:53:29.545Z,0
2018-04-10T01:54:29.829Z,0
2018-04-10T01:55:29.515Z,0
2018-04-10T01:56:30.219Z,0
2018-04-10T01:57:30.088Z,0
2018-04-10T01:58:50.376Z,0
2018-04-10T01:59:50.704Z,0
2018-04-10T02:00:51.230Z,0
2018-04-10T02:02:11.668Z,0
2018-04-10T02:03:12.079Z,0
2018-04-10T02:04:12.594Z,0
2018-04-10T02:05:12.250Z,0
2018-04-10T02:06:12.038Z,0
2018-04-10T02:07:12.412Z,0
2018-04-10T02:08:12.117Z,0
2018-04-10T02:09:12.708Z,0
2018-04-10T02:10:12.022Z,0
2018-04-10T02:11:11.426Z,0
2018-04-10T02:12:12.657Z,0
2018-04-10T02:13:15.181Z,0
2018-04-10T02:14:52.763Z,0
2018-04-10T02:15:53.352Z,0
2018-04-10T02:16:52.920Z,0
2018-04-10T02:17:53.629Z,0
2018-04-10T02:19:14.609Z,0
2018-04-10T02:20:15.042Z,0
2018-04-10T02:21:14.848Z,0
2018-04-10T02:22:15.132Z,0
2018-04-10T02:23:14.532Z,0
2018-04-10T02:24:15.125Z,0
2018-04-10T02:25:14.958Z,0
2018-04-10T02:26:14.560Z,0
2018-04-10T02:27:15.259Z,0
2018-04-10T02:28:14.482Z,0
2018-04-10T02:29:14.969Z,0
2018-04-10T02:30:14.852Z,0
2018-04-10T02:31:15.233Z,0
2018-04-10T02:32:14.724Z,0
2018-04-10T02:33:15.442Z,0
2018-04-10T02:34:15.164Z,0
2018-04-10T02:35:35.234Z,0
2018-04-10T02:36:35.912Z,0
2018-04-10T02:37:36.560Z,0
2018-04-10T02:38:35.887Z,0
2018-04-10T02:39:35.599Z,0
2018-04-10T02:40:36.077Z,0
2018-04-10T02:41:35.525Z,0
2018-04-10T02:42:36.293Z,0
2018-04-10T02:43:36.050Z,0
2018-04-10T02:44:35.992Z,0
2018-04-10T02:45:35.349Z,0
2018-04-10T02:46:35.812Z,0
2018-04-10T02:47:35.696Z,0
2018-04-10T02:48:36.133Z,0
2018-04-10T02:49:35.808Z,0
2018-04-10T02:50:35.334Z,0
2018-04-10T02:51:36.346Z,0
2018-04-10T02:52:56.640Z,0
2018-04-10T02:53:57.499Z,0
2018-04-10T02:54:57.378Z,0
2018-04-10T02:55:56.743Z,0
2018-04-10T02:56:57.328Z,0
2018-04-10T02:57:56.797Z,0
2018-04-10T02:59:37.759Z,0
2018-04-10T03:00:38.542Z,0
2018-04-10T03:01:38.461Z,0
2018-04-10T03:02:59.643Z,0
2018-04-10T03:04:00.292Z,0
2018-04-10T03:04:59.567Z,0
2018-04-10T03:06:00.277Z,0
2018-04-10T03:06:59.985Z,0
2018-04-10T03:07:59.315Z,0
2018-04-10T03:09:00.177Z,0
2018-04-10T03:09:59.501Z,0
2018-04-10T03:11:00.250Z,0
2018-04-10T03:11:59.961Z,0
2018-04-10T03:13:00.325Z,0
2018-04-10T03:13:59.960Z,0
2018-04-10T03:14:59.780Z,0
2018-04-10T03:16:00.484Z,0
2018-04-10T03:17:00.096Z,0
2018-04-10T03:17:59.752Z,0
2018-04-10T03:19:00.264Z,0
2018-04-10T03:19:59.712Z,0
2018-04-10T03:21:00.583Z,0
2018-04-10T03:22:00.062Z,0
2018-04-10T03:23:20.524Z,0
2018-04-10T03:24:42.734Z,0
2018-04-10T03:25:43.133Z,0
2018-04-10T03:27:03.419Z,0
2018-04-10T03:28:03.734Z,0
2018-04-10T03:29:04.164Z,0
2018-04-10T03:30:03.656Z,0
2018-04-10T03:31:03.934Z,0
2018-04-10T03:32:03.759Z,0
2018-04-10T03:33:04.242Z,0
2018-04-10T03:34:03.536Z,0
2018-04-10T03:35:04.261Z,0
2018-04-10T03:36:04.055Z,0
2018-04-10T03:37:03.976Z,0
2018-04-10T03:38:04.340Z,0
2018-04-10T03:39:03.707Z,0
2018-04-10T03:40:04.000Z,0
2018-04-10T03:41:03.871Z,0
2018-04-10T03:42:03.456Z,0
2018-04-10T03:43:03.869Z,0
2018-04-10T03:44:04.594Z,0
2018-04-10T03:45:04.100Z,0
2018-04-10T03:46:03.804Z,0
2018-04-10T03:47:04.647Z,0
2018-04-10T03:48:04.395Z,0
2018-04-10T03:49:04.040Z,0
2018-04-10T03:50:03.531Z,0
2018-04-10T03:51:04.196Z,0
2018-04-10T03:52:03.857Z,0
2018-04-10T03:53:04.486Z,0
2018-04-10T03:54:04.143Z,0
2018-04-10T03:55:03.441Z,0
2018-04-10T03:56:04.260Z,0
2018-04-10T03:57:03.553Z,0
2018-04-10T03:58:24.776Z,0
2018-04-10T03:59:25.561Z,0
2018-04-10T04:00:25.053Z,0
2018-04-10T04:01:25.660Z,0
2018-04-10T04:02:25.058Z,0
2018-04-10T04:03:25.660Z,0
2018-04-10T04:04:25.442Z,0
2018-04-10T04:05:25.229Z,0
2018-04-10T04:06:24.723Z,0
2018-04-10T04:07:25.273Z,0
2018-04-10T04:08:45.335Z,0
2018-04-10T04:09:45.873Z,0
2018-04-10T04:10:46.581Z,0
2018-04-10T04:11:46.112Z,0
2018-04-10T04:12:47.580Z,0
2018-04-10T04:14:06.449Z,0
2018-04-10T04:15:06.827Z,0
2018-04-10T04:16:09.748Z,0
2018-04-10T04:17:07.264Z,0
2018-04-10T04:18:06.510Z,0
2018-04-10T04:19:07.478Z,0
2018-04-10T04:20:07.099Z,0
2018-04-10T04:21:06.953Z,0
2018-04-10T04:22:07.312Z,0
2018-04-10T04:23:06.938Z,0
2018-04-10T04:24:07.931Z,0
2018-04-10T04:25:07.551Z,0
2018-04-10T04:26:07.446Z,0
2018-04-10T04:27:07.004Z,0
2018-04-10T04:28:07.459Z,0
2018-04-10T04:29:07.396Z,0
2018-04-10T04:30:06.922Z,0
2018-04-10T04:31:07.401Z,0
2018-04-10T04:32:07.010Z,0
2018-04-10T04:33:07.418Z,1
2018-04-10T04:34:06.833Z,1
2018-04-10T04:35:07.727Z,1
2018-04-10T04:36:07.871Z,1
2018-04-10T04:37:07.711Z,1
2018-04-10T04:38:07.636Z,1
2018-04-10T04:39:07.029Z,1
2018-04-10T04:40:06.926Z,2
2018-04-10T04:41:07.462Z,2
2018-04-10T04:42:07.062Z,2
2018-04-10T04:43:06.907Z,2
2018-04-10T04:44:07.735Z,2
2018-04-10T04:45:28.890Z,3
2018-04-10T04:46:29.945Z,3
2018-04-10T04:47:29.453Z,3
2018-04-10T04:48:28.944Z,4
2018-04-10T04:49:29.788Z,4
2018-04-10T04:50:29.379Z,4
2018-04-10T04:51:29.331Z,5
2018-04-10T04:52:29.296Z,5
2018-04-10T04:53:28.851Z,6
2018-04-10T04:54:29.600Z,6
2018-04-10T04:55:50.048Z,7
2018-04-10T04:56:49.746Z,8
2018-04-10T04:57:50.613Z,8
2018-04-10T04:58:50.028Z,9
2018-04-10T04:59:49.590Z,9
2018-04-10T05:00:50.203Z,10
2018-04-10T05:01:49.898Z,11
2018-04-10T05:02:50.401Z,12
2018-04-10T05:03:49.872Z,12
2018-04-10T05:04:49.405Z,13
2018-04-10T05:05:50.081Z,14
2018-04-10T05:06:50.072Z,14
2018-04-10T05:07:49.826Z,15
2018-04-10T05:08:50.305Z,16
2018-04-10T05:09:49.752Z,17
2018-04-10T05:11:11.927Z,18
2018-04-10T05:12:12.547Z,19
2018-04-10T05:13:12.065Z,21
2018-04-10T05:14:13.049Z,22
2018-04-10T05:15:33.281Z,24
2018-04-10T05:16:33.668Z,25
2018-04-10T05:17:55.857Z,26
2018-04-10T05:18:56.321Z,28
2018-04-10T05:19:55.839Z,29
2018-04-10T05:20:56.783Z,32
2018-04-10T05:21:56.294Z,34
2018-04-10T05:22:56.451Z,35
2018-04-10T05:24:16.575Z,36
2018-04-10T05:25:59.335Z,39
2018-04-10T05:26:59.771Z,42
2018-04-10T05:28:21.621Z,44
2018-04-10T05:29:22.209Z,45
2018-04-10T05:30:42.515Z,46
2018-04-10T05:31:43.473Z,47
2018-04-10T05:32:43.999Z,49
2018-04-10T05:33:43.481Z,51
2018-04-10T05:34:43.268Z,53
2018-04-10T05:35:43.058Z,54
2018-04-10T05:36:42.636Z,57
2018-04-10T05:37:43.588Z,59
2018-04-10T05:38:43.318Z,61
2018-04-10T05:39:43.105Z,64
2018-04-10T05:40:42.626Z,65
2018-04-10T05:41:43.541Z,66
2018-04-10T05:42:43.301Z,67
2018-04-10T05:43:43.325Z,67
2018-04-10T05:44:43.279Z,68
2018-04-10T05:45:43.219Z,70
2018-04-10T05:47:03.540Z,72
2018-04-10T05:48:04.506Z,72
2018-04-10T05:49:04.270Z,72
2018-04-10T05:50:24.903Z,74
2018-04-10T05:51:25.872Z,74
2018-04-10T05:53:07.568Z,76
2018-04-10T05:54:28.320Z,77
2018-04-10T05:55:29.149Z,76
2018-04-10T05:56:28.682Z,76
2018-04-10T05:57:50.589Z,73
2018-04-10T05:58:51.265Z,74
2018-04-10T05:59:51.305Z,75
2018-04-10T06:00:50.730Z,75
2018-04-10T06:01:51.164Z,76
2018-04-10T06:02:51.064Z,74
2018-04-10T06:03:51.635Z,72
2018-04-10T06:04:50.324Z,72
2018-04-10T06:05:50.890Z,72
2018-04-10T06:07:12.190Z,71
2018-04-10T06:08:13.319Z,71
2018-04-10T06:09:12.126Z,74
2018-04-10T06:10:12.044Z,77
2018-04-10T06:11:12.049Z,77
2018-04-10T06:12:13.215Z,75
2018-04-10T06:13:33.972Z,76
2018-04-10T06:14:34.699Z,75
2018-04-10T06:15:34.394Z,74
2018-04-10T06:16:34.088Z,74
2018-04-10T06:17:35.543Z,74
2018-04-10T06:18:34.437Z,73
2018-04-10T06:19:34.930Z,74
2018-04-10T06:20:34.536Z,76
2018-04-10T06:21:34.547Z,77
2018-04-10T06:22:34.068Z,81
2018-04-10T06:23:34.745Z,89
2018-04-10T06:24:34.509Z,91
2018-04-10T06:25:34.339Z,98
2018-04-10T06:26:35.242Z,95
2018-04-10T06:27:34.713Z,89
2018-04-10T06:28:34.309Z,85
2018-04-10T06:29:35.126Z,89
2018-04-10T06:30:34.827Z,95
2018-04-10T06:32:18.361Z,99
2018-04-10T06:33:19.424Z,93
2018-04-10T06:34:19.720Z,86
2018-04-10T06:35:18.341Z,83
2018-04-10T06:36:40.378Z,85
2018-04-10T06:37:40.912Z,88
2018-04-10T06:38:41.920Z,93
2018-04-10T06:39:43.462Z,97
2018-04-10T06:40:43.239Z,98
2018-04-10T06:42:02.693Z,101
2018-04-10T06:43:02.658Z,101
2018-04-10T06:44:02.475Z,101
2018-04-10T06:45:23.562Z,107
2018-04-10T06:46:24.565Z,110
2018-04-10T06:47:24.155Z,110
2018-04-10T06:48:44.613Z,109
2018-04-10T06:49:45.555Z,105
2018-04-10T06:50:45.062Z,97
2018-04-10T06:51:44.840Z,86
2018-04-10T06:52:45.839Z,81
2018-04-10T06:53:45.777Z,79
2018-04-10T06:54:45.703Z,84
2018-04-10T06:56:06.798Z,96
2018-04-10T06:57:08.349Z,94
2018-04-10T06:58:07.079Z,94
2018-04-10T06:59:07.872Z,98
2018-04-10T07:00:07.630Z,100
2018-04-10T07:01:07.487Z,99
2018-04-10T07:02:07.115Z,94
2018-04-10T07:03:07.626Z,94
2018-04-10T07:04:07.693Z,99
2018-04-10T07:05:28.856Z,97
2018-04-10T07:06:29.713Z,94
2018-04-10T07:07:29.395Z,99
2018-04-10T07:08:29.030Z,102
2018-04-10T07:09:29.548Z,102
2018-04-10T07:10:29.015Z,108
2018-04-10T07:11:30.095Z,113
2018-04-10T07:12:30.065Z,121
2018-04-10T07:13:30.099Z,125
2018-04-10T07:14:29.785Z,137
2018-04-10T07:15:29.568Z,142
2018-04-10T07:17:12.094Z,149
2018-04-10T07:18:12.603Z,152
2018-04-10T07:19:12.339Z,146
2018-04-10T07:20:12.177Z,151
2018-04-10T07:21:53.397Z,152
2018-04-10T07:22:54.402Z,154
2018-04-10T07:23:54.390Z,159
2018-04-10T07:24:54.266Z,164
2018-04-10T07:25:55.311Z,171
2018-04-10T07:26:54.220Z,168
2018-04-10T07:27:53.701Z,160
2018-04-10T07:28:53.229Z,157
2018-04-10T07:30:15.361Z,148
2018-04-10T07:31:15.383Z,144
2018-04-10T07:32:15.045Z,172
2018-04-10T07:33:36.462Z,198
2018-04-10T07:34:58.640Z,197
2018-04-10T07:35:59.109Z,207
2018-04-10T07:36:59.015Z,201
2018-04-10T07:37:58.695Z,201
2018-04-10T07:38:59.462Z,194
2018-04-10T07:39:59.452Z,192
2018-04-10T07:40:59.158Z,194
2018-04-10T07:41:58.758Z,198
2018-04-10T07:42:59.876Z,205
2018-04-10T07:43:59.747Z,206
2018-04-10T07:44:59.305Z,193
2018-04-10T07:45:58.994Z,188
2018-04-10T07:46:59.520Z,174
2018-04-10T07:47:59.220Z,173
2018-04-10T07:48:59.229Z,180
2018-04-10T07:49:59.001Z,184
2018-04-10T07:50:59.560Z,183
2018-04-10T07:51:59.537Z,195
2018-04-10T07:53:21.020Z,202
2018-04-10T07:54:21.181Z,201
2018-04-10T07:55:42.950Z,212
2018-04-10T07:56:43.502Z,220
2018-04-10T07:57:43.525Z,229
2018-04-10T07:58:43.305Z,232
2018-04-10T07:59:43.750Z,227
2018-04-10T08:01:03.743Z,229
2018-04-10T08:02:04.740Z,233
2018-04-10T08:03:25.905Z,247
2018-04-10T08:04:25.644Z,259
2018-04-10T08:05:26.315Z,272
2018-04-10T08:06:26.242Z,280
2018-04-10T08:07:47.583Z,301
2018-04-10T08:08:48.235Z,312
2018-04-10T08:09:48.392Z,303
2018-04-10T08:11:09.897Z,304
2018-04-10T08:12:10.942Z,315
2018-04-10T08:13:10.431Z,315
2018-04-10T08:14:10.117Z,313
2018-04-10T08:15:31.072Z,323
2018-04-10T08:16:52.888Z,332
2018-04-10T08:18:15.011Z,314
2018-04-10T08:19:36.782Z,325
2018-04-10T08:20:37.592Z,321
2018-04-10T08:21:58.683Z,325
2018-04-10T08:22:59.280Z,365
2018-04-10T08:23:59.297Z,370
2018-04-10T08:24:59.220Z,356
2018-04-10T08:25:58.812Z,364
2018-04-10T08:26:59.364Z,392
2018-04-10T08:27:59.386Z,406
2018-04-10T08:29:20.218Z,406
2018-04-10T08:30:40.667Z,407
2018-04-10T08:31:41.713Z,411
2018-04-10T08:32:41.352Z,395
2018-04-10T08:33:41.366Z,394
2018-04-10T08:34:41.428Z,400
2018-04-10T08:36:02.998Z,402
2018-04-10T08:37:04.071Z,417
2018-04-10T08:38:04.017Z,419
2018-04-10T08:39:04.053Z,390
2018-04-10T08:40:25.287Z,352
2018-04-10T08:41:25.926Z,353
2018-04-10T08:42:25.547Z,348
2018-04-10T08:43:25.484Z,331
2018-04-10T08:44:46.003Z,312
2018-04-10T08:45:46.912Z,311
2018-04-10T08:46:46.757Z,304
2018-04-10T08:47:46.366Z,308
2018-04-10T08:48:46.127Z,324
2018-04-10T08:49:46.778Z,340
2018-04-10T08:50:46.682Z,349
2018-04-10T08:52:28.701Z,384
2018-04-10T08:53:29.489Z,409
2018-04-10T08:54:29.431Z,436
2018-04-10T08:55:29.340Z,440
2018-04-10T08:56:29.523Z,430
2018-04-10T08:57:29.306Z,403
2018-04-10T08:58:29.602Z,386
2018-04-10T08:59:29.858Z,396
2018-04-10T09:00:29.379Z,409
2018-04-10T09:01:29.430Z,401
2018-04-10T09:02:29.262Z,389
2018-04-10T09:03:29.432Z,385
2018-04-10T09:04:29.061Z,379
2018-04-10T09:05:29.119Z,376
2018-04-10T09:06:28.744Z,379
2018-04-10T09:07:29.295Z,374
2018-04-10T09:08:50.090Z,354
2018-04-10T09:09:50.145Z,326
2018-04-10T09:11:10.775Z,312
2018-04-10T09:12:11.744Z,335
2018-04-10T09:13:31.831Z,379
2018-04-10T09:14:32.390Z,398
2018-04-10T09:15:32.540Z,409
2018-04-10T09:16:32.549Z,421
2018-04-10T09:17:32.472Z,406
2018-04-10T09:18:32.477Z,417
2018-04-10T09:19:32.326Z,429
2018-04-10T09:20:32.009Z,438
2018-04-10T09:21:31.648Z,440
2018-04-10T09:22:53.854Z,372
2018-04-10T09:23:54.945Z,381
2018-04-10T09:24:54.938Z,383
2018-04-10T09:25:54.705Z,383
2018-04-10T09:27:18.951Z,422
2018-04-10T09:28:19.973Z,444
2018-04-10T09:29:43.016Z,417
2018-04-10T09:30:43.021Z,408
2018-04-10T09:31:42.548Z,418
2018-04-10T09:32:42.207Z,438
2018-04-10T09:33:42.732Z,422
2018-04-10T09:34:42.626Z,420
2018-04-10T09:35:43.297Z,437
2018-04-10T09:36:42.505Z,459
2018-04-10T09:37:42.290Z,497
2018-04-10T09:38:42.410Z,505
2018-04-10T09:39:42.041Z,490
2018-04-10T09:40:42.609Z,485
2018-04-10T09:41:42.265Z,495
2018-04-10T09:42:42.405Z,495
2018-04-10T09:43:42.554Z,488
2018-04-10T09:44:42.613Z,493
2018-04-10T09:45:42.245Z,502
2018-04-10T09:46:42.409Z,508
2018-04-10T09:47:43.221Z,504
2018-04-10T09:49:41.671Z,490
2018-04-10T09:50:34.200Z,498
2018-04-10T09:51:36.515Z,528
2018-04-10T09:53:04.863Z,538
2018-04-10T09:54:04.423Z,509
2018-04-10T09:55:04.495Z,500
2018-04-10T09:56:07.800Z,526
2018-04-10T09:57:03.014Z,519
2018-04-10T09:58:02.571Z,499
2018-04-10T09:59:02.679Z,502
2018-04-10T10:00:02.320Z,492
2018-04-10T10:01:01.881Z,476
2018-04-10T10:02:03.072Z,491
2018-04-10T10:03:02.184Z,511
2018-04-10T10:04:01.889Z,513
2018-04-10T10:05:02.911Z,493
2018-04-10T10:06:02.941Z,484
2018-04-10T10:07:02.564Z,487
2018-04-10T10:08:02.496Z,478
2018-04-10T10:09:02.453Z,465
2018-04-10T10:10:02.342Z,459
2018-04-10T10:11:02.292Z,465
2018-04-10T10:12:02.029Z,490
2018-04-10T10:13:02.579Z,483
2018-04-10T10:14:23.841Z,482
2018-04-10T10:15:24.446Z,493
2018-04-10T10:16:24.124Z,487
2018-04-10T10:17:24.269Z,489
2018-04-10T10:18:24.292Z,503
2018-04-10T10:19:23.963Z,481
2018-04-10T10:20:24.515Z,465
2018-04-10T10:21:24.344Z,472
2018-04-10T10:22:25.222Z,475
2018-04-10T10:23:24.814Z,476
2018-04-10T10:24:24.742Z,500
2018-04-10T10:25:46.525Z,519
2018-04-10T10:27:08.771Z,490
2018-04-10T10:28:09.387Z,475
2018-04-10T10:29:30.315Z,473
2018-04-10T10:30:30.162Z,476
2018-04-10T10:31:31.199Z,472
2018-04-10T10:32:30.400Z,481
2018-04-10T10:33:30.376Z,485
2018-04-10T10:34:51.962Z,477
2018-04-10T10:35:52.995Z,497
2018-04-10T10:36:52.599Z,518
2018-04-10T10:37:52.302Z,522
2018-04-10T10:38:52.306Z,517
2018-04-10T10:40:55.232Z,518
2018-04-10T10:41:55.246Z,522
2018-04-10T10:42:55.767Z,522
2018-04-10T10:43:55.880Z,522
2018-04-10T10:44:55.531Z,527
2018-04-10T10:45:55.251Z,549
2018-04-10T10:46:55.815Z,557
2018-04-10T10:47:55.608Z,544
2018-04-10T10:49:15.913Z,507
2018-04-10T10:50:37.895Z,459
2018-04-10T10:51:38.343Z,475
2018-04-10T10:52:38.472Z,514
2018-04-10T10:53:38.382Z,537
2018-04-10T10:54:37.975Z,547
2018-04-10T10:56:29.440Z,511
2018-04-10T10:57:30.187Z,519
2018-04-10T10:58:30.212Z,528
2018-04-10T10:59:29.717Z,512
2018-04-10T11:00:30.426Z,516
2018-04-10T11:01:30.481Z,521
2018-04-10T11:02:30.051Z,516
2018-04-10T11:03:30.057Z,510
2018-04-10T11:04:29.684Z,520
2018-04-10T11:05:30.776Z,511
2018-04-10T11:06:30.748Z,485
2018-04-10T11:07:30.628Z,487
2018-04-10T11:09:56.641Z,518
2018-04-10T11:11:17.787Z,500
2018-04-10T11:13:00.178Z,503
2018-04-10T11:14:00.801Z,503
2018-04-10T11:15:00.276Z,474
2018-04-10T11:16:05.312Z,480
2018-04-10T11:17:01.193Z,508
2018-04-10T11:18:21.449Z,529
2018-04-10T11:19:22.103Z,527
2018-04-10T11:20:21.989Z,518
2018-04-10T11:21:22.842Z,532
2018-04-10T11:22:22.595Z,535
2018-04-10T11:23:43.233Z,517
2018-04-10T11:24:44.196Z,471
2018-04-10T11:25:43.665Z,452
2018-04-10T11:26:43.319Z,479
2018-04-10T11:27:43.858Z,509
2018-04-10T11:29:25.707Z,508
2018-04-10T11:30:47.876Z,491
2018-04-10T11:32:10.026Z,530
2018-04-10T11:33:09.781Z,547
2018-04-10T11:34:10.763Z,536
2018-04-10T11:35:10.851Z,509
2018-04-10T11:36:10.564Z,473
2018-04-10T11:37:10.604Z,434
2018-04-10T11:38:10.611Z,442
2018-04-10T11:39:10.408Z,478
2018-04-10T11:40:10.415Z,485
2018-04-10T11:41:10.167Z,519
2018-04-10T11:42:10.208Z,506
2018-04-10T11:43:10.155Z,470
2018-04-10T11:44:10.285Z,470
2018-04-10T11:45:10.496Z,481
2018-04-10T11:46:31.655Z,476
2018-04-10T11:47:32.251Z,491
2018-04-10T11:48:32.379Z,494
2018-04-10T11:49:53.897Z,498
2018-04-10T11:51:15.867Z,488
2018-04-10T11:52:36.627Z,498
2018-04-10T11:53:37.663Z,530
2018-04-10T11:54:57.832Z,549
2018-04-10T11:56:20.219Z,538
2018-04-10T11:57:20.812Z,533
2018-04-10T11:58:20.341Z,536
2018-04-10T11:59:41.613Z,532
2018-04-10T12:00:42.713Z,514
2018-04-10T12:01:42.662Z,507
2018-04-10T12:02:42.524Z,503
2018-04-10T12:03:42.666Z,506
2018-04-10T12:04:42.685Z,500
2018-04-10T12:06:03.957Z,488
2018-04-10T12:07:04.800Z,487
2018-04-10T12:08:25.836Z,426
2018-04-10T12:09:48.036Z,457
2018-04-10T12:10:48.577Z,499
2018-04-10T12:11:48.578Z,525
2018-04-10T12:12:48.408Z,539
2018-04-10T12:13:48.299Z,528
2018-04-10T12:14:48.868Z,533
2018-04-10T12:15:48.473Z,526
2018-04-10T12:16:47.999Z,514
2018-04-10T12:18:09.726Z,517
2018-04-10T12:19:10.326Z,541
2018-04-10T12:20:09.898Z,549
2018-04-10T12:21:10.628Z,560
2018-04-10T12:22:10.684Z,555
2018-04-10T12:23:10.416Z,554
2018-04-10T12:24:10.412Z,548
2018-04-10T12:25:10.107Z,535
2018-04-10T12:26:56.391Z,537
2018-04-10T12:27:57.359Z,538
2018-04-10T12:28:57.264Z,531
2018-04-10T12:29:56.878Z,531
2018-04-10T12:30:57.728Z,527
2018-04-10T12:32:18.854Z,503
2018-04-10T12:34:00.954Z,490
2018-04-10T12:35:01.672Z,475
2018-04-10T12:36:01.457Z,479
2018-04-10T12:37:01.166Z,487
2018-04-10T12:38:01.890Z,486
2018-04-10T12:39:22.590Z,491
2018-04-10T12:40:23.342Z,501
2018-04-10T12:41:22.864Z,509
2018-04-10T12:42:23.577Z,504
2018-04-10T12:43:23.458Z,494
2018-04-10T12:44:23.476Z,491
2018-04-10T12:45:23.032Z,480
2018-04-10T12:46:44.163Z,469
2018-04-10T12:48:05.854Z,485
2018-04-10T12:49:27.995Z,489
2018-04-10T12:50:49.584Z,477
2018-04-10T12:52:11.574Z,472
2018-04-10T12:53:12.517Z,464
2018-04-10T12:54:12.183Z,458
2018-04-10T12:55:12.099Z,470
2018-04-10T12:56:11.832Z,470
2018-04-10T12:57:13.047Z,476
2018-04-10T12:58:11.724Z,468
2018-04-10T12:59:12.627Z,469
2018-04-10T13:00:34.095Z,463
2018-04-10T13:01:56.021Z,471
2018-04-10T13:03:18.197Z,467
2018-04-10T13:04:19.216Z,443
2018-04-10T13:05:18.327Z,425
2018-04-10T13:06:38.836Z,447
2018-04-10T13:07:39.875Z,400
2018-04-10T13:08:39.802Z,387
2018-04-10T13:09:39.530Z,407
2018-04-10T13:11:01.249Z,511
2018-04-10T13:12:01.832Z,477
2018-04-10T13:13:01.755Z,425
2018-04-10T13:14:07.401Z,452
2018-04-10T13:15:09.545Z,444
2018-04-10T13:16:02.204Z,429
2018-04-10T13:17:01.256Z,427
2018-04-10T13:18:00.984Z,447
2018-04-10T13:19:03.837Z,461
2018-04-10T13:20:02.054Z,476
2018-04-10T13:21:02.019Z,472
2018-04-10T13:22:23.056Z,454
2018-04-10T13:23:44.416Z,451
2018-04-10T13:24:45.515Z,439
2018-04-10T13:26:06.715Z,460
2018-04-10T13:27:07.483Z,471
2018-04-10T13:28:07.119Z,456
2018-04-10T13:29:07.199Z,444
2018-04-10T13:30:27.801Z,453
2018-04-10T13:31:28.889Z,448
2018-04-10T13:32:27.807Z,435
2018-04-10T13:33:28.717Z,413
2018-04-10T13:34:27.547Z,392
2018-04-10T13:35:50.442Z,419
2018-04-10T13:36:51.443Z,431
2018-04-10T13:38:10.959Z,423
2018-04-10T13:39:11.114Z,421
2018-04-10T13:40:11.667Z,413
2018-04-10T13:41:12.386Z,404
2018-04-10T13:42:11.366Z,390
2018-04-10T13:43:32.770Z,373
2018-04-10T13:44:55.329Z,382
2018-04-10T13:45:56.386Z,395
2018-04-10T13:46:56.361Z,377
2018-04-10T13:47:55.949Z,369
2018-04-10T13:48:56.082Z,361
2018-04-10T13:50:17.022Z,368
2018-04-10T13:51:17.391Z,390
2018-04-10T13:52:17.385Z,397
2018-04-10T13:53:17.283Z,398
2018-04-10T13:54:17.373Z,408
2018-04-10T13:55:17.832Z,410
2018-04-10T13:56:17.020Z,411
2018-04-10T13:57:16.919Z,404
2018-04-10T13:58:16.603Z,391
2018-04-10T13:59:17.676Z,391
2018-04-10T14:00:17.213Z,405
2018-04-10T14:01:17.309Z,419
2018-04-10T14:02:17.236Z,405
2018-04-10T14:03:17.560Z,395
2018-04-10T14:04:17.305Z,399
2018-04-10T14:05:17.340Z,412
2018-04-10T14:06:17.353Z,397
2018-04-10T14:07:17.179Z,351
2018-04-10T14:08:40.122Z,320
2018-04-10T14:09:39.878Z,344
2018-04-10T14:10:40.424Z,351
2018-04-10T14:11:40.494Z,356
2018-04-10T14:12:40.662Z,357
2018-04-10T14:13:40.447Z,384
2018-04-10T14:14:43.359Z,385
2018-04-10T14:15:40.359Z,385
2018-04-10T14:16:40.387Z,364
2018-04-10T14:17:40.599Z,345
2018-04-10T14:18:40.435Z,340
2018-04-10T14:19:40.437Z,347
2018-04-10T14:20:41.451Z,346
2018-04-10T14:21:40.494Z,349
2018-04-10T14:22:40.520Z,344
2018-04-10T14:24:01.572Z,356
2018-04-10T14:25:24.897Z,357
2018-04-10T14:26:24.992Z,359
2018-04-10T14:27:24.603Z,349
2018-04-10T14:28:24.783Z,333
2018-04-10T14:29:24.497Z,331
2018-04-10T14:30:44.880Z,327
2018-04-10T14:31:45.042Z,326
2018-04-10T14:32:44.528Z,322
2018-04-10T14:33:45.212Z,325
2018-04-10T14:34:44.758Z,329
2018-04-10T14:35:45.547Z,320
2018-04-10T14:36:45.653Z,316
2018-04-10T14:37:45.637Z,306
2018-04-10T14:38:45.599Z,290
2018-04-10T14:40:27.394Z,270
2018-04-10T14:41:28.100Z,244
2018-04-10T14:42:28.104Z,267
2018-04-10T14:43:27.860Z,222
2018-04-10T14:44:27.696Z,229
2018-04-10T14:45:28.466Z,217
2018-04-10T14:46:28.177Z,206
2018-04-10T14:47:27.834Z,204
2018-04-10T14:48:28.001Z,217
2018-04-10T14:49:27.740Z,286
2018-04-10T14:50:28.769Z,277
2018-04-10T14:51:27.424Z,262
2018-04-10T14:52:28.440Z,253
2018-04-10T14:53:28.502Z,279
2018-04-10T14:54:28.450Z,249
2018-04-10T14:55:28.560Z,227
2018-04-10T14:56:28.246Z,197
2018-04-10T14:57:28.354Z,186
2018-04-10T14:58:28.338Z,168
2018-04-10T14:59:27.917Z,160
2018-04-10T15:00:27.662Z,139
2018-04-10T15:01:27.516Z,127
2018-04-10T15:02:28.341Z,131
2018-04-10T15:03:28.226Z,113
2018-04-10T15:04:28.468Z,187
2018-04-10T15:05:28.620Z,265
2018-04-10T15:06:28.184Z,221
2018-04-10T15:08:10.585Z,152